createdAt,value
2018-12-29T00:02:26.289Z,0.60
2018-12-29T00:05:01.025Z,0.40
2018-12-29T00:07:37.980Z,0.50
2018-12-29T00:10:13.201Z,0.50
2018-12-29T00:12:47.337Z,0.60
2018-12-29T00:15:21.974Z,0.60
2018-12-29T00:17:57.611Z,0.53
2018-12-29T00:20:36.490Z,0.50
2018-12-29T00:23:10.745Z,0.63
2018-12-29T00:25:45.561Z,0.60
2018-12-29T00:28:23.722Z,0.40
2018-12-29T00:31:02.414Z,0.40
2018-12-29T00:33:36.380Z,0.50
2018-12-29T00:36:10.586Z,0.70
2018-12-29T00:38:46.712Z,0.50
2018-12-29T00:41:20.953Z,0.80
2018-12-29T00:43:56.205Z,0.60
2018-12-29T00:46:30.098Z,0.70
2018-12-29T00:49:12.175Z,0.63
2018-12-29T00:51:46.992Z,0.63
2018-12-29T00:54:22.246Z,0.60
2018-12-29T00:56:56.134Z,0.77
2018-12-29T00:59:30.042Z,0.70
2018-12-29T01:02:04.692Z,0.80
2018-12-29T01:04:41.227Z,0.60
2018-12-29T01:07:15.246Z,0.60
2018-12-29T01:09:54.347Z,0.73
2018-12-29T01:12:31.620Z,0.97
2018-12-29T01:15:10.161Z,0.60
2018-12-29T01:17:44.483Z,0.80
2018-12-29T01:20:18.745Z,0.90
2018-12-29T01:22:53.471Z,0.60
2018-12-29T01:25:29.344Z,0.90
2018-12-29T01:28:03.711Z,0.70
2018-12-29T01:30:39.088Z,1.10
2018-12-29T01:33:12.979Z,0.80
2018-12-29T01:35:47.061Z,0.67
2018-12-29T01:38:21.208Z,1.27
2018-12-29T01:40:55.224Z,1.00
2018-12-29T01:43:33.169Z,0.83
2018-12-29T01:46:10.088Z,0.77
2018-12-29T01:48:45.063Z,0.90
2018-12-29T01:51:19.040Z,0.60
2018-12-29T01:53:53.121Z,0.50
2018-12-29T01:56:29.794Z,0.70
2018-12-29T01:59:05.156Z,0.80
2018-12-29T02:01:39.038Z,0.60
2018-12-29T02:04:13.207Z,0.73
2018-12-29T02:06:52.372Z,0.70
2018-12-29T02:09:27.512Z,0.90
2018-12-29T02:12:03.778Z,0.77
2018-12-29T02:14:37.600Z,0.70
2018-12-29T02:17:16.974Z,0.77
2018-12-29T02:19:51.952Z,0.70
2018-12-29T02:22:27.291Z,0.80
2018-12-29T02:25:02.802Z,0.70
2018-12-29T02:27:38.887Z,0.87
2018-12-29T02:30:14.971Z,0.73
2018-12-29T02:33:07.132Z,0.50
2018-12-29T02:35:43.669Z,0.40
2018-12-29T02:38:19.370Z,0.70
2018-12-29T02:40:53.845Z,0.50
2018-12-29T02:43:28.266Z,0.43
2018-12-29T02:46:06.595Z,0.60
2018-12-29T02:48:47.981Z,0.40
2018-12-29T02:51:23.095Z,0.60
2018-12-29T02:54:00.923Z,0.40
2018-12-29T02:56:40.202Z,0.40
2018-12-29T02:59:14.176Z,0.50
2018-12-29T03:01:48.263Z,0.47
2018-12-29T03:04:22.548Z,0.50
2018-12-29T03:07:15.846Z,0.50
2018-12-29T03:09:50.743Z,0.30
2018-12-29T03:12:27.341Z,0.40
2018-12-29T03:15:02.607Z,0.67
2018-12-29T03:17:41.288Z,0.60
2018-12-29T03:20:18.006Z,0.50
2018-12-29T03:22:59.024Z,0.73
2018-12-29T03:25:42.539Z,0.40
2018-12-29T03:28:18.850Z,0.50
2018-12-29T03:30:57.168Z,0.90
2018-12-29T03:33:32.137Z,0.80
2018-12-29T03:36:07.126Z,0.60
2018-12-29T03:38:41.035Z,0.60
2018-12-29T03:41:28.130Z,0.60
2018-12-29T03:44:01.997Z,0.70
2018-12-29T03:46:36.091Z,0.73
2018-12-29T03:49:10.032Z,0.90
2018-12-29T03:51:45.223Z,0.70
2018-12-29T03:54:21.962Z,1.10
2018-12-29T03:56:56.041Z,1.10
2018-12-29T03:59:39.266Z,0.70
2018-12-29T04:02:14.895Z,0.70
2018-12-29T04:04:49.037Z,0.90
2018-12-29T04:07:26.207Z,0.80
2018-12-29T04:10:02.001Z,0.90
2018-12-29T04:12:41.025Z,1.20
2018-12-29T04:15:17.330Z,1.20
2018-12-29T04:17:58.469Z,1.20
2018-12-29T04:20:34.917Z,0.90
2018-12-29T04:23:15.110Z,1.00
2018-12-29T04:25:53.609Z,1.30
2018-12-29T04:28:27.514Z,1.20
2018-12-29T04:31:05.040Z,1.10
2018-12-29T04:33:39.236Z,0.90
2018-12-29T04:36:14.204Z,1.10
2018-12-29T04:38:49.335Z,1.00
2018-12-29T04:41:23.447Z,0.87
2018-12-29T04:44:01.012Z,1.10
2018-12-29T04:46:35.703Z,1.43
2018-12-29T04:49:11.905Z,1.17
2018-12-29T04:51:45.911Z,1.00
2018-12-29T04:54:31.735Z,1.10
2018-12-29T04:57:05.725Z,0.80
2018-12-29T04:59:52.836Z,0.60
2018-12-29T05:02:32.730Z,1.40
2018-12-29T05:05:09.730Z,0.90
2018-12-29T05:07:45.617Z,0.73
2018-12-29T05:10:25.742Z,0.90
2018-12-29T05:13:04.236Z,0.70
2018-12-29T05:15:50.253Z,0.67
2018-12-29T05:18:35.773Z,0.80
2018-12-29T05:21:10.835Z,1.00
2018-12-29T05:23:57.110Z,1.10
2018-12-29T05:26:32.790Z,1.10
2018-12-29T05:29:14.145Z,0.70
2018-12-29T05:31:49.874Z,1.10
2018-12-29T05:34:26.395Z,0.73
2018-12-29T05:37:05.701Z,1.13
2018-12-29T05:39:40.212Z,0.80
2018-12-29T05:42:22.502Z,0.90
2018-12-29T05:47:49.349Z,0.83
2018-12-29T05:50:23.451Z,0.90
2018-12-29T05:52:59.206Z,0.90
2018-12-29T05:55:33.483Z,1.00
2018-12-29T05:58:08.450Z,1.00
2018-12-29T06:01:02.277Z,0.90
2018-12-29T06:03:43.542Z,1.00
2018-12-29T06:06:17.762Z,0.90
2018-12-29T06:08:55.137Z,0.93
2018-12-29T06:11:33.652Z,0.93
2018-12-29T06:14:09.240Z,0.80
2018-12-29T06:16:46.149Z,0.90
2018-12-29T06:19:31.654Z,0.80
2018-12-29T06:22:07.174Z,0.80
2018-12-29T06:24:47.058Z,0.73
2018-12-29T06:27:21.771Z,0.87
2018-12-29T06:30:06.049Z,0.67
2018-12-29T06:32:56.854Z,1.07
2018-12-29T06:35:32.012Z,0.90
2018-12-29T06:38:10.242Z,0.90
2018-12-29T06:40:44.446Z,0.70
2018-12-29T06:43:18.631Z,0.93
2018-12-29T06:45:57.010Z,0.53
2018-12-29T06:48:56.380Z,0.80
2018-12-29T06:51:33.298Z,1.10
2018-12-29T06:54:14.275Z,0.70
2018-12-29T06:56:48.211Z,0.70
2018-12-29T06:59:22.164Z,0.90
2018-12-29T07:01:59.894Z,0.90
2018-12-29T07:04:39.903Z,0.67
2018-12-29T07:07:19.794Z,0.57
2018-12-29T07:09:55.317Z,0.60
2018-12-29T07:12:29.380Z,0.60
2018-12-29T07:15:03.737Z,0.50
2018-12-29T07:17:37.931Z,0.70
2018-12-29T07:20:12.038Z,0.47
2018-12-29T07:23:04.982Z,0.53
2018-12-29T07:25:39.106Z,0.70
2018-12-29T07:28:13.111Z,0.60
2018-12-29T07:30:47.430Z,0.43
2018-12-29T07:33:23.635Z,0.70
2018-12-29T07:36:02.594Z,0.60
2018-12-29T07:38:36.721Z,0.57
2018-12-29T07:41:38.602Z,0.50
2018-12-29T07:44:12.639Z,0.47
2018-12-29T07:46:49.625Z,0.63
2018-12-29T07:49:23.028Z,0.57
2018-12-29T07:52:00.308Z,0.50
2018-12-29T07:54:35.617Z,0.40
2018-12-29T07:57:09.351Z,0.50
2018-12-29T07:59:43.028Z,0.50
2018-12-29T08:02:22.161Z,0.40
2018-12-29T08:05:00.310Z,0.53
2018-12-29T08:07:34.284Z,0.60
2018-12-29T08:10:13.215Z,0.60
2018-12-29T08:12:52.016Z,0.40
2018-12-29T08:15:42.289Z,0.60
2018-12-29T08:18:16.898Z,0.63
2018-12-29T08:20:55.741Z,0.40
2018-12-29T08:23:32.418Z,0.23
2018-12-29T08:26:08.530Z,0.30
2018-12-29T08:28:46.954Z,0.20
2018-12-29T08:31:27.718Z,0.57
2018-12-29T08:34:11.307Z,0.30
2018-12-29T08:36:56.240Z,0.30
2018-12-29T08:39:20.946Z,0.40
2018-12-29T08:41:59.927Z,0.40
2018-12-29T08:44:36.033Z,0.27
2018-12-29T08:50:18.736Z,0.40
2018-12-29T08:52:54.194Z,0.33
2018-12-29T08:55:29.897Z,0.53
2018-12-29T08:58:11.880Z,0.20
2018-12-29T09:00:49.182Z,0.30
2018-12-29T09:03:28.076Z,0.37
2018-12-29T09:06:06.543Z,0.33
2018-12-29T09:08:42.302Z,0.30
2018-12-29T09:11:21.578Z,0.50
2018-12-29T09:13:59.232Z,0.33
2018-12-29T09:16:34.417Z,0.30
2018-12-29T09:19:32.610Z,0.30
2018-12-29T09:22:16.151Z,0.37
2018-12-29T09:24:55.154Z,0.20
2018-12-29T09:27:38.879Z,0.30
2018-12-29T09:30:14.594Z,0.37
2018-12-29T09:32:48.556Z,0.30
2018-12-29T09:35:34.652Z,0.40
2018-12-29T09:38:08.751Z,0.20
2018-12-29T09:40:47.800Z,0.30
2018-12-29T09:43:25.609Z,0.20
2018-12-29T09:46:11.168Z,0.20
2018-12-29T09:48:57.165Z,0.20
2018-12-29T09:51:32.453Z,0.40
2018-12-29T09:54:07.219Z,0.27
2018-12-29T09:56:49.736Z,0.40
2018-12-29T09:59:27.645Z,0.30
2018-12-29T10:02:11.857Z,0.30
2018-12-29T10:04:55.727Z,0.20
2018-12-29T10:07:33.281Z,0.20
2018-12-29T10:10:07.601Z,0.30
2018-12-29T10:12:47.452Z,0.40
2018-12-29T10:15:25.874Z,0.30
2018-12-29T10:18:07.184Z,0.30
2018-12-29T10:20:44.415Z,0.20
2018-12-29T10:23:29.881Z,0.40
2018-12-29T10:26:05.664Z,0.23
2018-12-29T10:28:58.363Z,0.20
2018-12-29T10:31:33.986Z,0.60
2018-12-29T10:34:10.062Z,0.30
2018-12-29T10:39:44.539Z,0.37
2018-12-29T10:42:18.736Z,0.37
2018-12-29T10:45:02.264Z,0.30
2018-12-29T10:47:38.548Z,0.30
2018-12-29T10:50:30.670Z,0.33
2018-12-29T10:53:13.995Z,0.27
2018-12-29T10:55:49.648Z,0.30
2018-12-29T10:58:33.944Z,0.20
2018-12-29T11:01:05.507Z,0.23
2018-12-29T11:03:41.146Z,0.20
2018-12-29T11:06:22.896Z,0.20
2018-12-29T11:09:02.981Z,0.40
2018-12-29T11:11:42.639Z,0.30
2018-12-29T11:14:20.851Z,0.30
2018-12-29T11:16:59.083Z,0.20
2018-12-29T11:19:55.805Z,0.40
2018-12-29T11:22:29.455Z,0.27
2018-12-29T11:25:09.163Z,0.30
2018-12-29T11:27:56.668Z,0.40
2018-12-29T11:30:32.898Z,0.40
2018-12-29T11:33:07.591Z,0.20
2018-12-29T11:38:40.174Z,0.30
2018-12-29T11:41:14.405Z,0.20
2018-12-29T11:43:58.285Z,0.20
2018-12-29T11:46:32.240Z,0.30
2018-12-29T11:49:06.202Z,0.20
2018-12-29T11:54:38.821Z,0.23
2018-12-29T11:57:12.716Z,0.20
2018-12-29T11:59:46.973Z,0.30
2018-12-29T12:02:25.373Z,0.30
2018-12-29T12:05:04.014Z,0.20
2018-12-29T12:07:37.930Z,0.30
2018-12-29T12:10:29.463Z,0.30
2018-12-29T12:13:04.460Z,0.30
2018-12-29T12:15:42.196Z,0.47
2018-12-29T12:18:23.540Z,0.23
2018-12-29T12:21:02.867Z,0.27
2018-12-29T12:23:36.758Z,0.40
2018-12-29T12:26:21.437Z,0.27
2018-12-29T12:28:56.397Z,0.30
2018-12-29T12:31:30.809Z,0.63
2018-12-29T12:34:08.443Z,0.50
2018-12-29T12:36:45.924Z,0.20
2018-12-29T12:39:19.883Z,0.20
2018-12-29T12:41:53.842Z,0.33
2018-12-29T12:44:36.464Z,0.20
2018-12-29T12:47:11.450Z,0.40
2018-12-29T12:49:45.292Z,0.20
2018-12-29T12:52:19.426Z,0.33
2018-12-29T12:54:57.147Z,0.20
2018-12-29T12:57:36.448Z,0.30
2018-12-29T13:00:11.434Z,0.30
2018-12-29T13:02:53.934Z,0.20
2018-12-29T13:05:29.638Z,0.30
2018-12-29T13:08:11.774Z,0.20
2018-12-29T13:10:47.194Z,0.30
2018-12-29T13:13:21.173Z,0.30
2018-12-29T13:15:55.114Z,0.40
2018-12-29T13:18:55.162Z,0.40
2018-12-29T13:21:29.300Z,0.30
2018-12-29T13:24:03.446Z,0.50
2018-12-29T13:26:40.078Z,0.30
2018-12-29T13:29:16.858Z,0.40
2018-12-29T13:31:51.126Z,0.23
2018-12-29T13:34:25.005Z,0.40
2018-12-29T13:37:06.667Z,0.37
2018-12-29T13:39:45.157Z,0.20
2018-12-29T13:42:22.866Z,0.43
2018-12-29T13:44:57.782Z,0.30
2018-12-29T13:47:32.000Z,0.40
2018-12-29T13:50:06.051Z,0.20
2018-12-29T13:52:40.360Z,0.40
2018-12-29T13:55:23.796Z,0.30
2018-12-29T13:58:03.535Z,0.30
2018-12-29T14:00:37.669Z,0.30
2018-12-29T14:03:18.370Z,0.30
2018-12-29T14:05:52.146Z,0.70
2018-12-29T14:08:35.204Z,0.40
2018-12-29T14:11:23.484Z,0.40
2018-12-29T14:13:57.627Z,0.50
2018-12-29T14:16:31.463Z,0.33
2018-12-29T14:19:06.208Z,0.40
2018-12-29T14:21:42.808Z,0.30
2018-12-29T14:24:16.716Z,0.50
2018-12-29T14:26:52.658Z,0.60
2018-12-29T14:29:35.798Z,0.63
2018-12-29T14:32:15.817Z,0.60
2018-12-29T14:35:00.342Z,0.40
2018-12-29T14:37:35.375Z,0.50
2018-12-29T14:40:36.730Z,0.60
2018-12-29T14:43:13.663Z,0.60
2018-12-29T14:45:53.454Z,0.60
2018-12-29T14:48:35.691Z,0.73
2018-12-29T14:51:35.343Z,0.63
2018-12-29T14:54:13.601Z,0.70
2018-12-29T14:56:53.416Z,0.87
2018-12-29T14:59:31.318Z,0.80
2018-12-29T15:02:07.293Z,0.83
2018-12-29T15:04:47.482Z,0.80
2018-12-29T15:07:21.764Z,0.97
2018-12-29T15:09:57.656Z,0.60
2018-12-29T15:12:35.320Z,0.83
2018-12-29T15:15:09.715Z,0.87
2018-12-29T15:17:51.723Z,0.90
2018-12-29T15:20:26.368Z,0.77
2018-12-29T15:23:04.938Z,0.70
2018-12-29T15:25:43.774Z,1.10
2018-12-29T15:28:28.965Z,0.90
2018-12-29T15:31:04.704Z,0.93
2018-12-29T15:33:40.285Z,0.70
2018-12-29T15:36:25.759Z,0.83
2018-12-29T15:39:16.394Z,0.63
2018-12-29T15:41:50.636Z,0.67
2018-12-29T15:44:28.648Z,0.57
2018-12-29T15:47:07.495Z,0.57
2018-12-29T15:49:41.343Z,0.60
2018-12-29T15:52:19.506Z,0.63
2018-12-29T15:55:06.172Z,0.60
2018-12-29T15:57:41.863Z,0.67
2018-12-29T16:00:19.229Z,0.60
2018-12-29T16:02:53.135Z,0.60
2018-12-29T16:05:31.567Z,0.80
2018-12-29T16:08:10.516Z,0.67
2018-12-29T16:10:54.794Z,0.80
2018-12-29T16:13:30.147Z,0.70
2018-12-29T16:16:04.184Z,1.27
2018-12-29T16:18:43.853Z,0.60
2018-12-29T16:21:17.842Z,0.80
2018-12-29T16:23:52.924Z,0.40
2018-12-29T16:26:26.971Z,0.50
2018-12-29T16:29:02.014Z,0.50
2018-12-29T16:31:39.021Z,0.43
2018-12-29T16:34:18.259Z,0.70
2018-12-29T16:36:52.100Z,0.60
2018-12-29T16:39:28.210Z,0.53
2018-12-29T16:42:09.504Z,0.40
2018-12-29T16:44:55.101Z,0.50
2018-12-29T16:47:40.875Z,0.43
2018-12-29T16:50:18.590Z,0.50
2018-12-29T16:52:53.870Z,0.40
2018-12-29T16:55:32.983Z,0.43
2018-12-29T16:58:09.099Z,0.47
2018-12-29T17:00:49.792Z,0.30
2018-12-29T17:03:24.888Z,0.40
2018-12-29T17:05:59.533Z,0.40
2018-12-29T17:08:33.397Z,0.30
2018-12-29T17:11:07.524Z,0.30
2018-12-29T17:13:44.739Z,0.30
2018-12-29T17:16:36.633Z,0.37
2018-12-29T17:19:15.817Z,0.30
2018-12-29T17:21:49.879Z,0.20
2018-12-29T17:24:31.697Z,0.30
2018-12-29T17:27:05.876Z,0.30
2018-12-29T17:29:41.781Z,0.20
2018-12-29T17:32:21.555Z,0.20
2018-12-29T17:34:57.247Z,0.23
2018-12-29T17:37:31.326Z,0.20
2018-12-29T17:40:17.533Z,0.17
2018-12-29T17:42:53.792Z,0.10
2018-12-29T17:45:33.730Z,0.20
2018-12-29T17:48:07.725Z,0.10
2018-12-29T17:51:11.215Z,0.20
2018-12-29T17:53:48.083Z,0.10
2018-12-29T17:56:21.540Z,0.20
2018-12-29T17:58:58.224Z,0.30
2018-12-29T18:01:34.275Z,0.27
2018-12-29T18:04:08.337Z,0.20
2018-12-29T18:07:01.778Z,0.23
2018-12-29T18:09:41.617Z,0.20
2018-12-29T18:12:15.875Z,0.20
2018-12-29T18:14:54.634Z,0.10
2018-12-29T18:17:32.346Z,0.40
2018-12-29T18:20:09.514Z,0.30
2018-12-29T18:22:50.845Z,0.30
2018-12-29T18:25:26.452Z,0.23
2018-12-29T18:28:00.274Z,0.30
2018-12-29T18:30:39.667Z,0.40
2018-12-29T18:33:21.701Z,0.40
2018-12-29T18:35:57.787Z,0.30
2018-12-29T18:38:31.757Z,0.30
2018-12-29T18:41:06.561Z,0.47
2018-12-29T18:43:43.117Z,0.23
2018-12-29T18:46:25.468Z,0.40
2018-12-29T18:49:01.097Z,0.40
2018-12-29T18:51:35.389Z,0.40
2018-12-29T18:54:14.190Z,0.20
2018-12-29T18:56:54.195Z,0.40
2018-12-29T18:59:37.529Z,0.30
2018-12-29T19:02:13.323Z,0.40
2018-12-29T19:04:53.986Z,0.30
2018-12-29T19:07:28.446Z,0.40
2018-12-29T19:10:05.857Z,0.30
2018-12-29T19:12:42.071Z,0.30
2018-12-29T19:15:37.452Z,0.33
2018-12-29T19:18:13.678Z,0.40
2018-12-29T19:20:55.186Z,0.60
2018-12-29T19:23:29.468Z,0.40
2018-12-29T19:26:05.879Z,0.40
2018-12-29T19:28:43.915Z,0.40
2018-12-29T19:31:44.308Z,0.40
2018-12-29T19:34:13.081Z,0.50
2018-12-29T19:36:55.918Z,0.40
2018-12-29T19:39:29.943Z,0.70
2018-12-29T19:42:20.373Z,0.30
2018-12-29T19:44:55.451Z,0.43
2018-12-29T19:47:35.284Z,0.43
2018-12-29T19:50:14.108Z,0.30
2018-12-29T19:52:57.880Z,0.40
2018-12-29T19:55:32.637Z,0.60
2018-12-29T19:58:14.456Z,0.43
2018-12-29T20:00:51.000Z,0.70
2018-12-29T20:03:24.818Z,0.50
2018-12-29T20:05:58.659Z,0.87
2018-12-29T20:08:38.265Z,0.80
2018-12-29T20:11:15.849Z,0.50
2018-12-29T20:13:49.698Z,0.50
2018-12-29T20:16:46.712Z,0.60
2018-12-29T20:19:25.029Z,0.57
2018-12-29T20:22:02.098Z,0.83
2018-12-29T20:24:40.863Z,0.70
2018-12-29T20:27:15.590Z,0.80
2018-12-29T20:29:55.635Z,0.60
2018-12-29T20:32:36.480Z,0.70
2018-12-29T20:35:18.900Z,0.80
2018-12-29T20:38:08.477Z,0.70
2018-12-29T20:40:42.766Z,0.80
2018-12-29T20:43:23.426Z,0.93
2018-12-29T20:49:15.326Z,0.70
2018-12-29T20:51:52.367Z,0.80
2018-12-29T20:54:33.683Z,0.70
2018-12-29T20:57:12.883Z,1.00
2018-12-29T21:00:09.717Z,0.67
2018-12-29T21:02:49.533Z,0.90
2018-12-29T21:05:31.527Z,1.43
2018-12-29T21:08:06.859Z,0.70
2018-12-29T21:10:40.960Z,0.80
2018-12-29T21:13:46.430Z,0.80
2018-12-29T21:16:27.293Z,1.00
2018-12-29T21:19:01.260Z,0.87
2018-12-29T21:21:45.422Z,0.90
2018-12-29T21:24:20.606Z,0.90
2018-12-29T21:27:19.547Z,0.63
2018-12-29T21:29:56.838Z,0.80
2018-12-29T21:32:40.403Z,1.00
2018-12-29T21:35:15.676Z,0.80
2018-12-29T21:37:56.481Z,0.60
2018-12-29T21:40:35.885Z,0.70
2018-12-29T21:43:34.133Z,0.90
2018-12-29T21:46:14.230Z,0.70
2018-12-29T21:48:55.376Z,1.00
2018-12-29T21:51:30.796Z,0.80
2018-12-29T21:54:20.092Z,0.80
2018-12-29T21:57:10.812Z,0.70
2018-12-29T21:59:51.374Z,0.80
2018-12-29T22:05:27.776Z,0.77
2018-12-29T22:11:00.330Z,1.00
2018-12-29T22:13:34.148Z,0.80
2018-12-29T22:16:08.101Z,0.80
2018-12-29T22:18:52.628Z,1.00
2018-12-29T22:21:27.033Z,0.80
2018-12-29T22:24:27.705Z,0.93
2018-12-29T22:27:02.652Z,1.20
2018-12-29T22:29:41.720Z,0.80
2018-12-29T22:32:20.254Z,0.80
2018-12-29T22:35:04.256Z,1.03
2018-12-29T22:37:39.566Z,0.90
2018-12-29T22:40:28.421Z,0.83
2018-12-29T22:43:11.908Z,1.53
2018-12-29T22:45:46.709Z,0.70
2018-12-29T22:48:27.215Z,0.90
2018-12-29T22:51:19.730Z,0.70
2018-12-29T22:54:11.548Z,0.93
2018-12-29T22:59:42.309Z,1.10
2018-12-29T23:02:18.154Z,0.80
2018-12-29T23:05:00.961Z,1.13
2018-12-29T23:07:53.236Z,0.90
2018-12-29T23:10:36.051Z,1.03
2018-12-29T23:13:12.356Z,1.10
2018-12-29T23:15:54.326Z,1.10
2018-12-29T23:22:03.567Z,1.37
2018-12-29T23:24:37.683Z,1.00
2018-12-29T23:27:17.546Z,0.90
2018-12-29T23:30:08.653Z,0.80
2018-12-29T23:33:06.984Z,1.00
2018-12-29T23:36:02.959Z,0.87
2018-12-29T23:38:44.241Z,1.10
2018-12-29T23:41:30.438Z,1.20
2018-12-29T23:47:25.633Z,1.20
2018-12-29T23:49:59.592Z,1.43
2018-12-29T23:52:44.234Z,1.20
2018-12-29T23:55:45.009Z,1.20
2018-12-29T23:58:22.431Z,1.50
